Time;durP1;ratioP1;P1;durP2;ratioP2;P2;SDS_P1;SDS_P2;PMS_P1;PMS_P2;Temp;Humidity;BMP_temperature;BMP_pressure;BME280_temperature;BME280_humidity;BME280_pressure;Samples;Min_cycle;Max_cycle;Signal;HPM_P1;HPM_P2
2023/12/12 00:07:21;;;;;;;8.20;3.70;;;8.60;99.90;;;;;;20806615;28;20053;-46
2023/12/12 00:17:22;;;;;;;13.27;3.35;;;8.40;99.90;;;;;;20812470;28;20548;-46
2023/12/12 00:27:22;;;;;;;8.38;2.72;;;8.20;99.90;;;;;;20795423;28;20041;-46
2023/12/12 00:37:23;;;;;;;9.05;2.70;;;7.90;99.90;;;;;;20804930;28;20053;-46
2023/12/12 00:47:24;;;;;;;8.10;3.42;;;7.80;99.90;;;;;;20812328;28;20052;-46
2023/12/12 00:57:25;;;;;;;7.68;2.40;;;7.60;99.90;;;;;;20817631;28;20044;-46
2023/12/12 01:07:26;;;;;;;9.55;2.42;;;7.50;99.90;;;;;;20825570;28;20405;-46
2023/12/12 01:17:28;;;;;;;10.18;2.90;;;7.40;99.90;;;;;;20822321;28;20041;-46
2023/12/12 01:27:28;;;;;;;9.82;2.75;;;7.30;99.90;;;;;;20821496;28;20091;-46
2023/12/12 01:37:29;;;;;;;8.45;2.80;;;7.10;99.90;;;;;;20818765;28;20045;-46
2023/12/12 01:47:30;;;;;;;6.95;2.72;;;7.00;99.90;;;;;;20810106;28;20034;-46
2023/12/12 01:57:30;;;;;;;8.98;2.95;;;6.90;99.90;;;;;;20817237;28;20391;-46
2023/12/12 02:07:34;;;;;;;6.33;3.20;;;6.80;99.90;;;;;;20816303;28;20034;-46
2023/12/12 02:17:34;;;;;;;9.50;3.72;;;6.60;99.90;;;;;;20821493;28;20470;-46
2023/12/12 02:27:37;;;;;;;8.13;3.83;;;6.50;99.90;;;;;;20821423;28;20223;-46
2023/12/12 02:37:38;;;;;;;12.18;4.57;;;6.50;99.90;;;;;;20811246;28;20140;-46
2023/12/12 02:47:38;;;;;;;13.23;5.80;;;6.60;99.90;;;;;;20820545;28;20064;-46
2023/12/12 02:57:39;;;;;;;16.50;5.78;;;6.60;99.90;;;;;;20811358;28;20044;-46
2023/12/12 03:07:39;;;;;;;13.05;6.22;;;6.60;99.90;;;;;;20814713;28;20053;-46
2023/12/12 03:17:40;;;;;;;16.60;8.25;;;6.70;99.90;;;;;;20805422;28;20071;-46
2023/12/12 03:27:40;;;;;;;24.42;9.00;;;6.80;99.90;;;;;;20804177;28;20044;-46
2023/12/12 03:37:43;;;;;;;19.10;9.55;;;6.80;99.90;;;;;;20817729;28;20186;-46
2023/12/12 03:47:44;;;;;;;19.88;10.68;;;6.80;99.90;;;;;;20822571;28;20034;-46
2023/12/12 03:57:44;;;;;;;24.23;11.48;;;6.80;99.90;;;;;;20815729;28;20087;-46
2023/12/12 04:07:45;;;;;;;23.30;12.50;;;7.00;99.90;;;;;;20802271;28;20036;-46
2023/12/12 04:17:45;;;;;;;31.20;14.10;;;6.90;99.90;;;;;;20817204;28;20536;-46
2023/12/12 04:27:46;;;;;;;28.20;13.18;;;6.80;99.90;;;;;;20831616;28;20124;-47
2023/12/12 04:37:47;;;;;;;28.58;14.63;;;6.70;99.90;;;;;;20846168;28;20089;-46
2023/12/12 04:47:47;;;;;;;23.83;13.48;;;6.70;99.90;;;;;;20850079;28;20032;-46
2023/12/12 04:57:48;;;;;;;30.48;15.60;;;6.60;99.90;;;;;;20838570;28;20141;-46
2023/12/12 05:07:48;;;;;;;31.52;14.88;;;6.60;99.90;;;;;;20848950;28;20375;-46
2023/12/12 05:17:49;;;;;;;27.27;14.55;;;6.50;99.90;;;;;;20845653;28;20500;-47
2023/12/12 05:27:49;;;;;;;33.95;15.35;;;6.50;99.90;;;;;;20818590;28;20045;-46
2023/12/12 05:37:50;;;;;;;39.05;15.45;;;6.50;99.90;;;;;;20840309;28;20047;-47
2023/12/12 05:47:51;;;;;;;28.27;15.63;;;6.60;99.90;;;;;;20826692;28;20065;-46
2023/12/12 05:57:52;;;;;;;35.15;15.48;;;6.70;99.90;;;;;;20830850;28;20033;-46
2023/12/12 06:07:52;;;;;;;29.77;15.32;;;6.80;99.90;;;;;;20820661;28;20132;-47
2023/12/12 06:17:53;;;;;;;36.17;15.93;;;6.90;99.90;;;;;;20820906;28;20025;-46
2023/12/12 06:27:53;;;;;;;42.45;17.55;;;6.80;99.90;;;;;;20826576;28;20037;-46
2023/12/12 06:37:54;;;;;;;37.50;15.93;;;6.90;99.90;;;;;;20825596;28;20111;-47
2023/12/12 06:47:55;;;;;;;40.03;17.88;;;6.90;99.90;;;;;;20826590;28;20529;-47
2023/12/12 06:57:55;;;;;;;37.95;14.35;;;6.90;99.90;;;;;;20819391;28;20299;-46
2023/12/12 07:07:56;;;;;;;35.50;14.23;;;6.90;99.90;;;;;;20814184;28;20056;-46
2023/12/12 07:17:57;;;;;;;37.15;14.45;;;7.10;99.90;;;;;;20813970;28;20037;-46
2023/12/12 07:27:58;;;;;;;32.80;13.07;;;7.10;99.90;;;;;;20815157;28;20055;-46
2023/12/12 07:38:00;;;;;;;35.85;13.55;;;7.20;99.90;;;;;;20799438;28;20051;-46
2023/12/12 07:48:00;;;;;;;36.90;12.95;;;7.30;99.90;;;;;;20788899;28;20042;-45
2023/12/12 07:58:01;;;;;;;25.08;11.48;;;7.30;99.90;;;;;;20796991;28;20045;-45
2023/12/12 08:08:04;;;;;;;23.55;11.25;;;7.40;99.90;;;;;;20794915;28;20099;-45
2023/12/12 08:18:04;;;;;;;29.05;11.88;;;7.40;99.90;;;;;;20804863;28;20375;-45
2023/12/12 08:28:05;;;;;;;25.25;11.13;;;7.50;99.90;;;;;;20808347;28;20037;-45
2023/12/12 08:38:06;;;;;;;31.27;11.70;;;7.50;99.90;;;;;;20799825;28;20577;-45
2023/12/12 08:48:08;;;;;;;35.08;12.93;;;7.60;99.90;;;;;;20805737;28;20565;-45
2023/12/12 08:58:10;;;;;;;33.97;14.50;;;7.70;99.90;;;;;;20805893;28;20805;-45
2023/12/12 09:08:11;;;;;;;38.78;14.15;;;8.00;99.90;;;;;;20807283;28;20127;-45
2023/12/12 09:18:12;;;;;;;38.25;13.88;;;8.10;99.90;;;;;;20822246;28;20247;-46
2023/12/12 09:28:12;;;;;;;34.03;11.25;;;8.20;99.90;;;;;;20788222;28;20148;-45
2023/12/12 09:38:13;;;;;;;35.00;12.27;;;8.40;99.90;;;;;;20817552;28;20049;-45
2023/12/12 09:48:15;;;;;;;26.00;10.00;;;8.50;99.90;;;;;;20805770;28;20483;-45
2023/12/12 09:58:15;;;;;;;22.35;9.93;;;8.60;99.90;;;;;;20818205;28;20033;-46
2023/12/12 10:08:18;;;;;;;39.15;11.10;;;8.50;99.90;;;;;;20818811;28;20044;-45
2023/12/12 10:18:21;;;;;;;29.92;7.93;;;8.70;99.90;;;;;;20822095;28;20466;-46
2023/12/12 10:28:22;;;;;;;25.83;7.90;;;8.70;99.90;;;;;;20802683;28;20465;-46
2023/12/12 10:38:26;;;;;;;26.50;8.07;;;8.80;99.90;;;;;;20798247;28;20448;-46
2023/12/12 10:48:27;;;;;;;23.30;7.15;;;9.10;99.90;;;;;;20817715;28;20399;-46
2023/12/12 10:58:28;;;;;;;23.73;7.13;;;9.20;99.90;;;;;;20810183;28;20041;-46
2023/12/12 11:08:29;;;;;;;24.58;6.63;;;9.40;99.90;;;;;;20797831;28;20041;-46
2023/12/12 11:18:31;;;;;;;22.75;6.65;;;9.60;99.90;;;;;;20804233;28;20098;-46
2023/12/12 11:28:35;;;;;;;22.60;6.78;;;9.70;99.90;;;;;;20808454;28;20025;-46
2023/12/12 13:29:59;;;;;;;20.48;7.00;;;10.10;99.90;;;;;;20797895;27;21300;-40
2023/12/12 13:40:00;;;;;;;14.35;6.10;;;10.50;99.90;;;;;;20773343;28;20030;-40
2023/12/12 13:50:01;;;;;;;13.93;6.90;;;10.40;99.90;;;;;;20744110;28;20635;-40
2023/12/12 14:00:03;;;;;;;15.45;6.72;;;10.50;99.90;;;;;;20724505;28;20253;-39
2023/12/12 14:10:06;;;;;;;13.27;6.40;;;10.40;99.90;;;;;;20732287;28;22002;-40
2023/12/12 14:20:08;;;;;;;14.20;6.30;;;10.50;99.90;;;;;;20729911;28;20092;-40
2023/12/12 14:30:09;;;;;;;14.95;6.35;;;10.50;99.90;;;;;;20708776;28;20457;-40
2023/12/12 14:40:10;;;;;;;15.00;7.82;;;10.30;99.90;;;;;;20715875;28;20875;-40
2023/12/12 15:00:25;;;;;;;15.30;8.57;;;10.20;99.90;;;;;;19596057;22;25183;-84
2023/12/12 15:11:11;;;;;;;16.80;9.95;;;10.50;99.90;;;;;;20583121;28;20052;-86
2023/12/12 15:22:28;;;;;;;14.57;8.63;;;10.40;99.90;;;;;;20750392;28;20191;-43
2023/12/12 15:32:28;;;;;;;19.88;10.40;;;10.50;99.90;;;;;;20640609;28;20501;-40
2023/12/12 15:42:29;;;;;;;18.58;11.80;;;10.50;99.90;;;;;;20668458;28;20034;-40
2023/12/12 15:52:29;;;;;;;21.20;13.48;;;10.50;99.90;;;;;;20656302;28;20116;-40
2023/12/12 16:02:31;;;;;;;20.75;12.75;;;10.50;99.90;;;;;;20648255;28;20446;-39
2023/12/12 16:12:32;;;;;;;18.52;11.35;;;10.50;99.90;;;;;;20674432;28;20246;-42
2023/12/12 16:22:35;;;;;;;12.63;8.90;;;10.50;99.90;;;;;;20800702;28;20045;-42
2023/12/12 16:32:35;;;;;;;13.40;7.82;;;10.40;99.90;;;;;;20756841;28;20037;-42
2023/12/12 16:42:36;;;;;;;7.50;3.97;;;10.30;99.90;;;;;;20752460;28;20367;-39
2023/12/12 16:52:37;;;;;;;12.65;7.60;;;10.00;99.90;;;;;;20746556;28;20041;-40
2023/12/12 17:02:38;;;;;;;7.47;4.00;;;9.80;99.90;;;;;;20753349;28;20647;-39
2023/12/12 17:12:38;;;;;;;6.70;2.88;;;9.60;99.90;;;;;;20751833;28;20122;-39
2023/12/12 17:22:39;;;;;;;5.23;3.43;;;9.60;99.90;;;;;;20752960;28;20041;-39
2023/12/12 17:32:41;;;;;;;11.77;6.55;;;9.50;99.90;;;;;;20746861;28;20468;-39
2023/12/12 17:42:44;;;;;;;19.42;11.50;;;9.40;99.90;;;;;;20742477;28;20033;-39
2023/12/12 17:52:44;;;;;;;23.55;13.82;;;9.50;99.90;;;;;;20747818;28;20045;-40
2023/12/12 18:02:45;;;;;;;24.35;12.75;;;9.60;99.90;;;;;;20743068;28;20037;-40
2023/12/12 18:12:46;;;;;;;15.50;10.18;;;9.70;99.90;;;;;;20744522;28;20057;-39
2023/12/12 18:22:46;;;;;;;16.02;8.80;;;9.80;99.90;;;;;;20747409;28;20460;-40
2023/12/12 18:32:47;;;;;;;17.48;10.70;;;9.80;99.90;;;;;;20745469;28;20284;-39
2023/12/12 18:42:48;;;;;;;17.02;7.10;;;9.70;99.90;;;;;;20747204;28;20634;-40
2023/12/12 18:52:49;;;;;;;10.10;5.53;;;9.70;99.90;;;;;;20749392;28;20547;-40
2023/12/12 19:02:50;;;;;;;15.45;6.32;;;9.70;99.90;;;;;;20750922;28;20124;-40
2023/12/12 19:12:50;;;;;;;14.93;8.70;;;9.70;99.90;;;;;;20750228;28;20045;-40
2023/12/12 19:22:51;;;;;;;14.93;8.38;;;9.80;99.90;;;;;;20745641;28;20026;-40
2023/12/12 19:32:51;;;;;;;14.20;9.00;;;9.60;99.90;;;;;;20743272;28;20034;-43
2023/12/12 19:42:54;;;;;;;13.60;9.07;;;9.40;99.90;;;;;;20741540;28;20026;-42
2023/12/12 19:52:55;;;;;;;16.80;11.20;;;9.20;99.90;;;;;;20746961;28;20041;-42
2023/12/12 20:02:55;;;;;;;16.90;12.63;;;9.10;99.90;;;;;;20748758;28;20037;-42
2023/12/12 20:12:56;;;;;;;20.30;14.95;;;9.10;99.90;;;;;;20751076;28;20257;-42
2023/12/12 20:22:57;;;;;;;20.27;13.80;;;9.20;99.90;;;;;;20757175;28;20539;-42
2023/12/12 20:32:57;;;;;;;29.05;16.33;;;9.10;99.90;;;;;;20759704;28;20038;-42
2023/12/12 20:43:02;;;;;;;23.15;17.45;;;9.10;99.90;;;;;;20748566;28;20285;-42
2023/12/12 20:53:03;;;;;;;29.50;19.63;;;9.10;99.90;;;;;;20751457;28;20053;-42
2023/12/12 21:03:08;;;;;;;27.48;17.38;;;9.20;99.90;;;;;;20751674;28;20334;-42
2023/12/12 21:13:13;;;;;;;26.83;16.52;;;9.10;99.90;;;;;;20729206;28;20049;-42
2023/12/12 21:23:14;;;;;;;18.55;12.25;;;9.10;99.90;;;;;;20737554;28;20040;-42
2023/12/12 21:33:14;;;;;;;14.38;9.50;;;9.10;99.90;;;;;;20736113;28;20591;-42
2023/12/12 21:43:15;;;;;;;12.30;8.05;;;9.10;99.90;;;;;;20749168;28;20421;-43
2023/12/12 21:53:18;;;;;;;12.82;7.32;;;8.90;99.90;;;;;;20736344;28;20034;-43
2023/12/12 22:03:18;;;;;;;10.18;6.28;;;8.80;99.90;;;;;;20747795;28;20133;-43
2023/12/12 22:13:19;;;;;;;9.35;4.70;;;8.70;99.90;;;;;;20746801;28;20052;-42
2023/12/12 22:23:20;;;;;;;6.05;2.80;;;8.70;99.90;;;;;;20743139;28;20044;-42
2023/12/12 22:33:20;;;;;;;4.82;2.70;;;8.70;99.90;;;;;;20746079;28;20033;-43
2023/12/12 22:43:22;;;;;;;5.60;2.70;;;8.60;99.90;;;;;;20753169;28;20052;-42
2023/12/12 22:53:22;;;;;;;5.97;2.90;;;8.60;99.90;;;;;;20747316;28;20396;-42
2023/12/12 23:03:23;;;;;;;7.60;3.10;;;8.60;99.90;;;;;;20741014;28;20034;-42
2023/12/12 23:13:23;;;;;;;7.10;3.28;;;8.50;99.90;;;;;;20756139;28;20101;-42
2023/12/12 23:23:24;;;;;;;7.93;4.03;;;8.60;99.90;;;;;;20753315;28;20444;-42
2023/12/12 23:33:25;;;;;;;10.07;4.13;;;8.60;99.90;;;;;;20752677;28;20147;-42
2023/12/12 23:43:26;;;;;;;11.48;4.70;;;8.60;99.90;;;;;;20768999;28;20034;-39
2023/12/12 23:53:32;;;;;;;9.38;5.13;;;8.60;99.90;;;;;;20770041;28;20045;-40
